createdAt,value
2023-03-26T00:01:50.928Z,12.55
2023-03-26T00:04:21.617Z,8.50
2023-03-26T00:06:57.009Z,14.13
2023-03-26T00:09:25.570Z,8.52
2023-03-26T00:11:52.202Z,16.65
2023-03-26T00:14:22.401Z,15.82
2023-03-26T00:16:49.187Z,16.52
2023-03-26T00:19:16.710Z,17.08
2023-03-26T00:21:43.335Z,12.43
2023-03-26T00:24:17.274Z,14.95
2023-03-26T00:26:45.061Z,13.75
2023-03-26T00:29:15.408Z,12.10
2023-03-26T00:31:45.921Z,12.57
2023-03-26T00:34:15.341Z,16.20
2023-03-26T00:36:42.167Z,19.50
2023-03-26T00:39:17.603Z,16.63
2023-03-26T00:41:44.228Z,12.45
2023-03-26T00:44:11.309Z,12.32
2023-03-26T00:46:38.037Z,14.20
2023-03-26T00:49:06.316Z,18.77
2023-03-26T00:51:37.138Z,12.23
2023-03-26T00:54:08.072Z,14.85
2023-03-26T00:56:35.549Z,15.95
2023-03-26T00:59:04.179Z,15.38
2023-03-26T01:01:38.131Z,10.93
2023-03-26T01:04:28.345Z,17.92
2023-03-26T01:07:01.186Z,14.13
2023-03-26T01:09:33.801Z,8.80
2023-03-26T01:12:02.597Z,13.23
2023-03-26T01:14:29.917Z,16.08
2023-03-26T01:16:58.989Z,11.55
2023-03-26T01:19:45.522Z,15.80
2023-03-26T01:22:28.466Z,17.02
2023-03-26T01:24:56.412Z,14.82
2023-03-26T01:27:41.614Z,14.20
2023-03-26T01:30:43.481Z,13.75
2023-03-26T01:33:33.752Z,16.83
2023-03-26T01:36:04.696Z,15.98
2023-03-26T01:38:37.236Z,10.55
2023-03-26T01:41:07.014Z,17.77
2023-03-26T01:43:48.266Z,19.10
2023-03-26T01:46:17.496Z,17.75
2023-03-26T01:48:53.799Z,14.98
2023-03-26T01:51:34.318Z,14.02
2023-03-26T01:54:09.784Z,15.63
2023-03-26T01:57:01.583Z,16.98
2023-03-26T01:59:40.454Z,12.73
2023-03-26T02:02:15.015Z,22.48
2023-03-26T02:04:54.697Z,18.13
2023-03-26T02:07:38.721Z,21.83
2023-03-26T02:10:15.638Z,16.38
2023-03-26T02:12:44.283Z,13.35
2023-03-26T02:15:14.679Z,15.63
2023-03-26T02:17:41.368Z,11.77
2023-03-26T02:20:10.403Z,16.67
2023-03-26T02:22:41.393Z,11.98
2023-03-26T02:25:23.887Z,13.00
2023-03-26T02:27:53.924Z,17.92
2023-03-26T02:30:30.727Z,15.90
2023-03-26T02:33:01.135Z,14.00
2023-03-26T02:35:40.349Z,16.50
2023-03-26T02:38:09.936Z,16.30
2023-03-26T02:40:36.761Z,17.40
2023-03-26T02:43:06.675Z,12.05
2023-03-26T02:45:36.625Z,11.30
2023-03-26T02:48:22.099Z,10.20
2023-03-26T02:50:56.738Z,10.93
2023-03-26T02:53:54.639Z,9.93
2023-03-26T02:56:41.542Z,10.52
2023-03-26T02:59:23.373Z,10.98
2023-03-26T03:02:06.327Z,11.50
2023-03-26T03:04:38.163Z,6.90
2023-03-26T03:07:06.803Z,8.90
2023-03-26T03:09:36.848Z,11.48
2023-03-26T03:12:29.331Z,10.60
2023-03-26T03:14:56.874Z,7.63
2023-03-26T03:17:26.505Z,12.10
2023-03-26T03:19:55.190Z,8.70
2023-03-26T03:22:25.109Z,7.47
2023-03-26T03:24:56.261Z,12.50
2023-03-26T03:27:23.722Z,8.88
2023-03-26T03:29:58.850Z,8.60
2023-03-26T03:32:46.898Z,8.02
2023-03-26T03:35:20.008Z,13.10
2023-03-26T03:37:50.648Z,8.45
2023-03-26T03:40:22.577Z,12.32
2023-03-26T03:42:49.389Z,12.80
2023-03-26T03:45:33.891Z,9.05
2023-03-26T03:48:18.235Z,11.05
2023-03-26T03:50:46.597Z,7.70
2023-03-26T03:53:26.220Z,10.18
2023-03-26T03:55:57.819Z,6.68
2023-03-26T04:01:14.238Z,8.45
2023-03-26T04:03:56.690Z,5.90
2023-03-26T04:08:57.119Z,8.07
2023-03-26T04:11:31.771Z,6.53
2023-03-26T04:14:38.735Z,8.07
2023-03-26T04:17:17.804Z,5.22
2023-03-26T04:19:46.887Z,8.85
2023-03-26T04:22:16.930Z,7.70
2023-03-26T04:24:54.124Z,5.57
2023-03-26T04:27:36.686Z,4.47
2023-03-26T04:30:20.439Z,7.57
2023-03-26T04:33:03.089Z,5.40
2023-03-26T04:35:36.818Z,3.95
2023-03-26T04:38:09.344Z,6.43
2023-03-26T04:40:42.172Z,7.15
2023-03-26T04:43:48.188Z,5.45
2023-03-26T04:46:24.621Z,6.00
2023-03-26T04:49:03.385Z,7.43
2023-03-26T04:51:38.199Z,4.95
2023-03-26T04:54:24.430Z,5.88
2023-03-26T04:57:01.952Z,8.25
2023-03-26T04:59:54.805Z,6.28
2023-03-26T05:02:21.407Z,5.45
2023-03-26T05:04:51.854Z,3.75
2023-03-26T05:07:22.269Z,7.80
2023-03-26T05:09:54.601Z,6.10
2023-03-26T05:12:40.452Z,5.30
2023-03-26T05:15:17.184Z,9.05
2023-03-26T05:18:08.628Z,2.53
2023-03-26T05:20:45.078Z,6.47
2023-03-26T05:23:14.405Z,6.55
2023-03-26T05:25:49.520Z,5.63
2023-03-26T05:28:26.498Z,9.25
2023-03-26T05:31:20.979Z,6.20
2023-03-26T05:33:50.018Z,5.65
2023-03-26T05:36:17.099Z,4.25
2023-03-26T05:38:52.066Z,5.85
2023-03-26T05:41:43.615Z,5.03
2023-03-26T05:44:16.106Z,5.10
2023-03-26T05:46:47.587Z,7.32
2023-03-26T05:49:20.594Z,6.50
2023-03-26T05:51:49.108Z,8.32
2023-03-26T05:54:43.654Z,8.75
2023-03-26T05:57:30.426Z,4.97
2023-03-26T06:00:17.589Z,7.13
2023-03-26T06:02:47.880Z,8.85
2023-03-26T06:05:42.857Z,9.55
2023-03-26T06:08:20.811Z,10.32
2023-03-26T06:10:58.161Z,11.52
2023-03-26T06:13:24.749Z,8.73
2023-03-26T06:15:56.606Z,12.10
2023-03-26T06:18:33.695Z,10.32
2023-03-26T06:21:20.451Z,15.63
2023-03-26T06:24:00.175Z,12.82
2023-03-26T06:26:55.808Z,13.63
2023-03-26T06:29:45.393Z,8.40
2023-03-26T06:32:26.925Z,7.63
2023-03-26T06:35:05.292Z,9.25
2023-03-26T06:37:35.275Z,6.13
2023-03-26T06:40:06.112Z,6.75
2023-03-26T06:43:09.022Z,6.25
2023-03-26T06:45:40.331Z,6.85
2023-03-26T06:48:40.331Z,6.15
2023-03-26T06:51:30.773Z,5.90
2023-03-26T06:54:26.830Z,5.43
2023-03-26T06:56:56.812Z,6.53
2023-03-26T06:59:52.329Z,6.85
2023-03-26T07:02:37.296Z,6.00
2023-03-26T07:05:22.846Z,7.32
2023-03-26T07:08:08.053Z,6.82
2023-03-26T07:10:56.457Z,5.50
2023-03-26T07:13:42.259Z,5.97
2023-03-26T07:16:38.082Z,7.80
2023-03-26T07:19:24.010Z,9.90
2023-03-26T07:21:52.544Z,6.07
2023-03-26T07:24:44.967Z,10.45
2023-03-26T07:28:04.420Z,9.80
2023-03-26T07:31:43.621Z,6.50
2023-03-26T07:34:36.324Z,10.52
2023-03-26T07:37:26.917Z,5.97
2023-03-26T07:40:55.121Z,7.07
2023-03-26T07:43:59.828Z,3.17
2023-03-26T07:46:47.937Z,8.27
2023-03-26T07:49:35.214Z,7.68
2023-03-26T07:52:13.912Z,3.88
2023-03-26T07:54:59.088Z,8.10
2023-03-26T07:58:09.112Z,3.17
2023-03-26T08:01:21.606Z,6.25
2023-03-26T08:04:23.724Z,4.60
2023-03-26T08:07:51.422Z,4.47
2023-03-26T08:10:45.770Z,7.57
2023-03-26T08:13:22.218Z,6.68
2023-03-26T08:16:00.381Z,6.95
2023-03-26T08:18:41.138Z,6.65
2023-03-26T08:21:48.023Z,6.97
2023-03-26T08:24:25.230Z,7.93
2023-03-26T08:27:01.370Z,6.82
2023-03-26T08:30:02.673Z,7.00
2023-03-26T08:32:31.000Z,5.05
2023-03-26T08:34:59.886Z,7.45
2023-03-26T08:37:27.235Z,7.72
2023-03-26T08:39:54.186Z,5.20
2023-03-26T08:42:51.570Z,7.90
2023-03-26T08:45:51.110Z,5.60
2023-03-26T08:48:36.160Z,5.15
2023-03-26T08:51:33.748Z,6.65
2023-03-26T08:54:12.442Z,5.65
2023-03-26T08:57:07.190Z,7.82
2023-03-26T09:00:05.777Z,5.13
2023-03-26T09:02:52.724Z,8.68
2023-03-26T09:05:46.389Z,5.30
2023-03-26T09:08:54.158Z,6.65
2023-03-26T09:11:45.788Z,6.65
2023-03-26T09:14:24.184Z,7.43
2023-03-26T09:17:09.869Z,8.45
2023-03-26T09:19:54.664Z,10.63
2023-03-26T09:22:48.661Z,9.65
2023-03-26T09:25:41.628Z,7.80
2023-03-26T09:28:21.870Z,7.63
2023-03-26T09:31:06.228Z,7.25
2023-03-26T09:33:59.268Z,5.43
2023-03-26T09:36:56.986Z,3.40
2023-03-26T09:39:37.414Z,2.92
2023-03-26T09:42:14.436Z,2.20
2023-03-26T09:45:19.019Z,1.55
2023-03-26T09:48:01.006Z,1.50
2023-03-26T09:50:42.942Z,1.85
2023-03-26T09:53:50.362Z,3.38
2023-03-26T09:56:43.901Z,3.13
2023-03-26T09:59:21.016Z,3.05
2023-03-26T10:01:52.010Z,2.55
2023-03-26T10:04:56.019Z,5.80
2023-03-26T10:07:48.797Z,2.80
2023-03-26T10:13:26.035Z,1.58
2023-03-26T10:16:01.362Z,1.85
2023-03-26T10:18:46.137Z,2.70
2023-03-26T10:21:28.787Z,1.65
2023-03-26T10:24:09.415Z,1.80
2023-03-26T10:27:09.019Z,2.50
2023-03-26T10:29:40.186Z,3.15
2023-03-26T10:32:17.202Z,2.05
2023-03-26T10:35:04.789Z,2.35
2023-03-26T10:37:49.454Z,2.30
2023-03-26T10:40:46.138Z,1.35
2023-03-26T10:44:05.536Z,2.22
2023-03-26T10:47:18.341Z,3.05
2023-03-26T10:49:59.868Z,5.82
2023-03-26T10:52:48.754Z,5.90
2023-03-26T10:55:38.243Z,2.83
2023-03-26T10:58:29.372Z,2.92
2023-03-26T11:01:35.795Z,1.95
2023-03-26T11:04:31.828Z,3.03
2023-03-26T11:07:34.287Z,2.35
2023-03-26T11:10:16.888Z,2.47
2023-03-26T11:15:29.201Z,2.70
2023-03-26T11:18:16.421Z,1.23
2023-03-26T11:21:18.633Z,2.58
2023-03-26T11:24:05.225Z,1.10
2023-03-26T11:26:44.037Z,2.75
2023-03-26T11:29:41.349Z,2.53
2023-03-26T11:32:14.752Z,0.80
2023-03-26T11:34:46.507Z,0.40
2023-03-26T11:37:20.092Z,1.63
2023-03-26T11:39:56.764Z,1.95
2023-03-26T11:42:24.847Z,1.00
2023-03-26T11:44:56.909Z,2.28
2023-03-26T11:47:36.742Z,2.50
2023-03-26T11:50:06.981Z,2.70
2023-03-26T11:52:33.690Z,2.33
2023-03-26T11:55:02.984Z,4.00
2023-03-26T11:57:34.639Z,2.15
2023-03-26T12:00:17.820Z,1.00
2023-03-26T12:02:46.389Z,1.90
2023-03-26T12:05:22.243Z,1.83
2023-03-26T12:08:00.370Z,1.05
2023-03-26T12:10:39.946Z,2.08
2023-03-26T12:13:21.163Z,1.97
2023-03-26T12:15:47.966Z,2.25
2023-03-26T12:18:26.298Z,1.85
2023-03-26T12:21:19.248Z,1.08
2023-03-26T12:24:06.950Z,2.22
2023-03-26T12:26:42.793Z,1.25
2023-03-26T12:32:11.631Z,1.65
2023-03-26T12:34:39.721Z,1.38
2023-03-26T12:37:27.727Z,3.20
2023-03-26T12:40:15.020Z,1.40
2023-03-26T12:44:52.691Z,1.65
2023-03-26T12:45:42.603Z,0.63
2023-03-26T12:48:15.998Z,1.33
2023-03-26T12:50:57.024Z,2.80
2023-03-26T12:53:58.424Z,2.03
2023-03-26T12:56:38.021Z,1.95
2023-03-26T12:59:31.435Z,1.00
2023-03-26T13:01:58.227Z,1.90
2023-03-26T13:05:02.234Z,2.05
2023-03-26T13:08:07.210Z,1.00
2023-03-26T13:11:00.325Z,1.33
2023-03-26T13:13:52.678Z,1.90
2023-03-26T13:16:40.629Z,1.33
2023-03-26T13:19:24.579Z,2.30
2023-03-26T13:22:07.414Z,2.40
2023-03-26T13:24:43.437Z,1.27
2023-03-26T13:27:30.272Z,0.93
2023-03-26T13:30:06.076Z,4.00
2023-03-26T13:32:58.725Z,0.43
2023-03-26T13:38:22.658Z,1.25
2023-03-26T13:41:03.325Z,0.38
2023-03-26T13:43:46.160Z,0.40
2023-03-26T13:46:45.968Z,0.43
2023-03-26T13:49:20.918Z,1.02
2023-03-26T13:52:02.018Z,1.50
2023-03-26T13:54:32.504Z,1.30
2023-03-26T13:57:05.443Z,3.40
2023-03-26T13:59:41.969Z,1.08
2023-03-26T14:02:24.240Z,1.30
2023-03-26T14:04:58.398Z,1.70
2023-03-26T14:07:34.182Z,1.38
2023-03-26T14:10:10.579Z,1.95
2023-03-26T14:12:58.141Z,1.23
2023-03-26T14:15:27.699Z,1.35
2023-03-26T14:18:15.818Z,1.25
2023-03-26T14:21:00.655Z,0.60
2023-03-26T14:24:05.214Z,1.27
2023-03-26T14:26:58.360Z,1.45
2023-03-26T14:29:29.933Z,0.50
2023-03-26T14:32:29.646Z,0.73
2023-03-26T14:35:25.828Z,0.80
2023-03-26T14:37:58.463Z,0.50
2023-03-26T14:41:13.990Z,0.30
2023-03-26T14:43:55.344Z,0.40
2023-03-26T14:46:48.326Z,0.40
2023-03-26T14:49:30.610Z,0.60
2023-03-26T14:52:18.259Z,0.38
2023-03-26T14:54:52.986Z,0.77
2023-03-26T14:57:31.643Z,1.23
2023-03-26T15:00:20.704Z,0.50
2023-03-26T15:03:21.231Z,0.35
2023-03-26T15:06:21.003Z,0.20
2023-03-26T15:09:05.209Z,0.80
2023-03-26T15:11:43.529Z,0.60
2023-03-26T15:14:38.351Z,1.17
2023-03-26T15:17:23.858Z,0.80
2023-03-26T15:20:05.559Z,1.15
2023-03-26T15:22:51.070Z,1.23
2023-03-26T15:25:45.494Z,1.80
2023-03-26T15:28:45.753Z,1.70
2023-03-26T15:31:36.514Z,1.50
2023-03-26T15:34:12.431Z,1.55
2023-03-26T15:37:06.291Z,2.10
2023-03-26T15:40:07.724Z,1.77
2023-03-26T15:43:05.414Z,1.67
2023-03-26T15:45:38.068Z,2.30
2023-03-26T15:48:11.601Z,2.10
2023-03-26T15:50:57.551Z,1.38
2023-03-26T15:53:38.647Z,2.38
2023-03-26T15:56:42.222Z,2.60
2023-03-26T15:59:26.797Z,3.65
2023-03-26T16:02:20.005Z,2.00
2023-03-26T16:04:54.495Z,2.42
2023-03-26T16:07:21.665Z,3.20
2023-03-26T16:09:51.215Z,3.17
2023-03-26T16:12:18.046Z,4.30
2023-03-26T16:14:46.663Z,2.75
2023-03-26T16:17:23.398Z,4.82
2023-03-26T16:20:31.410Z,4.03
2023-03-26T16:23:06.873Z,5.85
2023-03-26T16:25:35.326Z,5.20
2023-03-26T16:28:11.417Z,8.68
2023-03-26T16:30:42.001Z,11.73
2023-03-26T16:33:38.871Z,10.30
2023-03-26T16:36:18.339Z,8.75
2023-03-26T16:39:00.563Z,12.35
2023-03-26T16:41:30.297Z,11.23
2023-03-26T16:44:13.762Z,8.55
2023-03-26T16:47:18.569Z,11.52
2023-03-26T16:50:25.842Z,11.18
2023-03-26T16:53:13.275Z,15.73
2023-03-26T16:55:47.806Z,9.35
2023-03-26T16:58:27.889Z,8.43
2023-03-26T17:01:09.032Z,10.73
2023-03-26T17:03:50.971Z,11.77
2023-03-26T17:06:26.814Z,8.77
2023-03-26T17:08:53.383Z,9.43
2023-03-26T17:11:57.302Z,13.25
2023-03-26T17:14:48.856Z,10.63
2023-03-26T17:17:51.448Z,9.13
2023-03-26T17:20:32.945Z,8.35
2023-03-26T17:23:14.589Z,7.57
2023-03-26T17:26:00.799Z,9.93
2023-03-26T17:28:51.877Z,8.20
2023-03-26T17:31:41.372Z,9.18
2023-03-26T17:34:39.157Z,7.32
2023-03-26T17:37:32.807Z,6.97
2023-03-26T17:40:06.285Z,6.47
2023-03-26T17:42:35.537Z,9.48
2023-03-26T17:45:07.544Z,7.70
2023-03-26T17:47:42.155Z,6.43
2023-03-26T17:50:20.985Z,8.73
2023-03-26T17:53:12.831Z,8.63
2023-03-26T17:55:44.612Z,6.83
2023-03-26T17:58:28.850Z,9.02
2023-03-26T18:01:07.543Z,8.45
2023-03-26T18:03:47.112Z,6.65
2023-03-26T18:06:30.871Z,8.52
2023-03-26T18:09:16.496Z,6.60
2023-03-26T18:12:13.139Z,4.35
2023-03-26T18:15:04.980Z,9.45
2023-03-26T18:17:42.595Z,9.60
2023-03-26T18:20:20.923Z,10.23
2023-03-26T18:22:50.324Z,9.25
2023-03-26T18:25:30.269Z,4.70
2023-03-26T18:28:01.849Z,7.97
2023-03-26T18:30:31.195Z,10.38
2023-03-26T18:33:05.143Z,8.90
2023-03-26T18:35:53.944Z,7.25
2023-03-26T18:38:34.997Z,16.17
2023-03-26T18:41:08.437Z,4.78
2023-03-26T18:43:43.551Z,11.60
2023-03-26T18:46:19.759Z,7.70
2023-03-26T18:48:47.204Z,6.68
2023-03-26T18:51:22.639Z,8.75
2023-03-26T18:53:56.681Z,7.45
2023-03-26T18:56:35.113Z,7.30
2023-03-26T18:59:04.298Z,5.82
2023-03-26T19:01:33.167Z,5.65
2023-03-26T19:04:07.755Z,7.65
2023-03-26T19:06:41.938Z,7.47
2023-03-26T19:09:23.805Z,9.68
2023-03-26T19:12:00.271Z,6.32
2023-03-26T19:14:29.661Z,9.27
2023-03-26T19:17:04.833Z,3.83
2023-03-26T19:19:37.144Z,6.57
2023-03-26T19:24:31.553Z,11.85
2023-03-26T19:27:11.864Z,8.77
2023-03-26T19:29:44.573Z,8.73
2023-03-26T19:32:27.774Z,7.43
2023-03-26T19:34:59.570Z,8.25
2023-03-26T19:37:29.920Z,8.27
2023-03-26T19:40:29.798Z,9.82
2023-03-26T19:42:59.700Z,8.00
2023-03-26T19:45:29.750Z,8.70
2023-03-26T19:48:13.946Z,6.35
2023-03-26T19:50:54.961Z,16.02
2023-03-26T19:53:38.351Z,9.85
2023-03-26T19:56:08.044Z,9.27
2023-03-26T19:58:35.490Z,12.32
2023-03-26T20:01:03.231Z,4.05
2023-03-26T20:03:40.441Z,7.22
2023-03-26T20:06:11.870Z,6.22
2023-03-26T20:08:40.304Z,4.55
2023-03-26T20:11:36.382Z,5.72
2023-03-26T20:14:15.958Z,8.73
2023-03-26T20:16:45.811Z,6.45
2023-03-26T20:19:15.577Z,7.97
2023-03-26T20:21:47.126Z,9.82
2023-03-26T20:24:18.372Z,7.57
2023-03-26T20:26:46.096Z,11.05
2023-03-26T20:29:15.763Z,6.13
2023-03-26T20:31:45.941Z,6.28
2023-03-26T20:34:16.813Z,6.00
2023-03-26T20:36:44.011Z,6.47
2023-03-26T20:39:11.709Z,6.50
2023-03-26T20:41:46.570Z,8.25
2023-03-26T20:44:15.895Z,8.65
2023-03-26T20:46:44.020Z,9.55
2023-03-26T20:49:16.036Z,6.50
2023-03-26T20:51:45.377Z,6.05
2023-03-26T20:54:23.595Z,5.53
2023-03-26T20:56:52.175Z,7.32
2023-03-26T20:59:33.657Z,5.85
2023-03-26T21:02:02.598Z,7.45
2023-03-26T21:04:32.272Z,7.80
2023-03-26T21:07:07.010Z,8.68
2023-03-26T21:09:44.601Z,10.68
2023-03-26T21:12:27.950Z,5.25
2023-03-26T21:14:55.858Z,4.72
2023-03-26T21:17:23.355Z,10.57
2023-03-26T21:19:50.611Z,5.25
2023-03-26T21:22:19.955Z,10.73
2023-03-26T21:25:27.363Z,5.75
2023-03-26T21:27:56.986Z,7.63
2023-03-26T21:30:26.083Z,7.90
2023-03-26T21:32:53.367Z,5.53
2023-03-26T21:35:20.651Z,6.47
2023-03-26T21:37:50.546Z,5.25
2023-03-26T21:40:18.548Z,6.65
2023-03-26T21:42:50.935Z,9.30
2023-03-26T21:47:47.883Z,7.57
2023-03-26T21:50:23.884Z,10.05
2023-03-26T21:52:53.446Z,10.13
2023-03-26T21:55:28.360Z,8.10
2023-03-26T21:58:39.297Z,5.57
2023-03-26T22:01:29.892Z,6.13
2023-03-26T22:04:19.386Z,9.25
2023-03-26T22:06:56.591Z,5.30
2023-03-26T22:09:33.757Z,9.30
2023-03-26T22:12:03.292Z,8.15
2023-03-26T22:14:40.439Z,4.47
2023-03-26T22:17:08.040Z,7.63
2023-03-26T22:19:38.294Z,12.30
2023-03-26T22:22:05.195Z,7.93
2023-03-26T22:24:34.198Z,4.97
2023-03-26T22:27:03.945Z,7.35
2023-03-26T22:29:30.855Z,5.88
2023-03-26T22:32:02.256Z,9.75
2023-03-26T22:34:31.428Z,9.82
2023-03-26T22:36:58.932Z,4.43
2023-03-26T22:39:28.572Z,6.35
2023-03-26T22:41:58.554Z,5.53
2023-03-26T22:44:25.303Z,10.70
2023-03-26T22:46:56.212Z,14.68
2023-03-26T22:49:30.009Z,7.60
2023-03-26T22:51:56.971Z,5.13
2023-03-26T22:54:24.088Z,6.70
2023-03-26T22:56:52.038Z,4.82
2023-03-26T22:59:18.869Z,5.28
2023-03-26T23:01:58.177Z,7.07
2023-03-26T23:04:30.591Z,7.78
2023-03-26T23:07:00.161Z,4.13
2023-03-26T23:09:29.553Z,6.53
2023-03-26T23:11:56.490Z,4.53
2023-03-26T23:14:23.574Z,6.85
2023-03-26T23:16:51.368Z,7.75
2023-03-26T23:19:23.935Z,4.50
2023-03-26T23:21:52.953Z,4.93
2023-03-26T23:24:26.205Z,8.40
2023-03-26T23:26:54.307Z,6.30
2023-03-26T23:29:25.854Z,4.75
2023-03-26T23:31:58.203Z,6.80
2023-03-26T23:34:27.541Z,11.82
2023-03-26T23:37:00.772Z,7.53
2023-03-26T23:39:33.404Z,5.47
2023-03-26T23:41:59.968Z,3.22
2023-03-26T23:44:29.201Z,5.72
2023-03-26T23:46:57.876Z,4.93
2023-03-26T23:49:24.716Z,3.22
2023-03-26T23:51:56.016Z,7.45
2023-03-26T23:54:25.555Z,3.85
2023-03-26T23:56:59.586Z,7.97
2023-03-26T23:59:29.564Z,9.90
